sensor_id;sensor_type;location;lat;lon;timestamp;P1;durP1;ratioP1;P2;durP2;ratioP2
4385;SDS011;2207;53.540;10.042;2023-05-09T00:00:47;3.30;;;1.70;;
4385;SDS011;2207;53.540;10.042;2023-05-09T00:03:13;4.43;;;2.17;;
4385;SDS011;2207;53.540;10.042;2023-05-09T00:05:40;1.97;;;1.87;;
4385;SDS011;2207;53.540;10.042;2023-05-09T00:08:07;2.50;;;1.70;;
4385;SDS011;2207;53.540;10.042;2023-05-09T00:10:34;2.33;;;2.13;;
4385;SDS011;2207;53.540;10.042;2023-05-09T00:13:02;3.70;;;1.83;;
4385;SDS011;2207;53.540;10.042;2023-05-09T00:15:28;9.43;;;1.60;;
4385;SDS011;2207;53.540;10.042;2023-05-09T00:17:55;4.10;;;1.70;;
4385;SDS011;2207;53.540;10.042;2023-05-09T00:20:23;1.80;;;1.70;;
4385;SDS011;2207;53.540;10.042;2023-05-09T00:22:49;1.67;;;1.57;;
4385;SDS011;2207;53.540;10.042;2023-05-09T00:25:16;2.60;;;2.20;;
4385;SDS011;2207;53.540;10.042;2023-05-09T00:27:43;3.23;;;1.83;;
4385;SDS011;2207;53.540;10.042;2023-05-09T00:30:11;1.50;;;1.30;;
4385;SDS011;2207;53.540;10.042;2023-05-09T00:32:38;3.63;;;1.73;;
4385;SDS011;2207;53.540;10.042;2023-05-09T00:35:05;1.60;;;1.50;;
4385;SDS011;2207;53.540;10.042;2023-05-09T00:37:33;5.63;;;1.77;;
4385;SDS011;2207;53.540;10.042;2023-05-09T00:40:00;2.80;;;1.77;;
4385;SDS011;2207;53.540;10.042;2023-05-09T00:42:27;2.10;;;2.00;;
4385;SDS011;2207;53.540;10.042;2023-05-09T00:44:54;3.43;;;1.67;;
4385;SDS011;2207;53.540;10.042;2023-05-09T00:47:22;2.10;;;2.00;;
4385;SDS011;2207;53.540;10.042;2023-05-09T00:49:49;2.37;;;1.40;;
4385;SDS011;2207;53.540;10.042;2023-05-09T00:52:18;2.13;;;1.67;;
4385;SDS011;2207;53.540;10.042;2023-05-09T00:54:47;3.10;;;2.30;;
4385;SDS011;2207;53.540;10.042;2023-05-09T00:57:14;2.20;;;2.00;;
4385;SDS011;2207;53.540;10.042;2023-05-09T00:59:41;1.90;;;1.70;;
4385;SDS011;2207;53.540;10.042;2023-05-09T01:02:08;1.93;;;1.83;;
4385;SDS011;2207;53.540;10.042;2023-05-09T01:04:36;3.17;;;2.37;;
4385;SDS011;2207;53.540;10.042;2023-05-09T01:07:05;3.90;;;2.10;;
4385;SDS011;2207;53.540;10.042;2023-05-09T01:09:37;2.30;;;2.10;;
4385;SDS011;2207;53.540;10.042;2023-05-09T01:12:12;7.20;;;1.90;;
4385;SDS011;2207;53.540;10.042;2023-05-09T01:14:49;2.77;;;2.07;;
4385;SDS011;2207;53.540;10.042;2023-05-09T01:17:25;3.47;;;2.23;;
4385;SDS011;2207;53.540;10.042;2023-05-09T01:20:00;4.30;;;1.67;;
4385;SDS011;2207;53.540;10.042;2023-05-09T01:22:35;2.47;;;2.03;;
4385;SDS011;2207;53.540;10.042;2023-05-09T01:28:09;2.20;;;2.10;;
4385;SDS011;2207;53.540;10.042;2023-05-09T01:30:40;1.50;;;1.33;;
4385;SDS011;2207;53.540;10.042;2023-05-09T01:33:11;2.07;;;1.90;;
4385;SDS011;2207;53.540;10.042;2023-05-09T01:35:42;2.00;;;1.90;;
4385;SDS011;2207;53.540;10.042;2023-05-09T01:38:12;3.00;;;1.87;;
4385;SDS011;2207;53.540;10.042;2023-05-09T01:40:41;7.47;;;2.30;;
4385;SDS011;2207;53.540;10.042;2023-05-09T01:43:12;8.33;;;1.90;;
4385;SDS011;2207;53.540;10.042;2023-05-09T01:45:43;4.03;;;2.40;;
4385;SDS011;2207;53.540;10.042;2023-05-09T01:48:11;2.20;;;2.00;;
4385;SDS011;2207;53.540;10.042;2023-05-09T01:50:39;1.90;;;1.80;;
4385;SDS011;2207;53.540;10.042;2023-05-09T01:53:08;2.00;;;1.90;;
4385;SDS011;2207;53.540;10.042;2023-05-09T01:55:36;4.23;;;2.63;;
4385;SDS011;2207;53.540;10.042;2023-05-09T01:58:05;9.20;;;2.20;;
4385;SDS011;2207;53.540;10.042;2023-05-09T02:00:33;2.27;;;1.90;;
4385;SDS011;2207;53.540;10.042;2023-05-09T02:03:01;3.37;;;2.20;;
4385;SDS011;2207;53.540;10.042;2023-05-09T02:05:29;5.30;;;2.47;;
4385;SDS011;2207;53.540;10.042;2023-05-09T02:07:58;2.13;;;1.93;;
4385;SDS011;2207;53.540;10.042;2023-05-09T02:10:25;5.07;;;2.10;;
4385;SDS011;2207;53.540;10.042;2023-05-09T02:12:53;6.60;;;2.50;;
4385;SDS011;2207;53.540;10.042;2023-05-09T02:15:20;2.07;;;1.93;;
4385;SDS011;2207;53.540;10.042;2023-05-09T02:17:47;2.00;;;1.80;;
4385;SDS011;2207;53.540;10.042;2023-05-09T02:20:16;7.47;;;2.40;;
4385;SDS011;2207;53.540;10.042;2023-05-09T02:22:43;4.40;;;2.83;;
4385;SDS011;2207;53.540;10.042;2023-05-09T02:25:10;2.87;;;2.50;;
4385;SDS011;2207;53.540;10.042;2023-05-09T02:27:40;11.50;;;2.30;;
4385;SDS011;2207;53.540;10.042;2023-05-09T02:30:10;3.63;;;1.73;;
4385;SDS011;2207;53.540;10.042;2023-05-09T02:32:40;2.60;;;2.40;;
4385;SDS011;2207;53.540;10.042;2023-05-09T02:35:10;6.43;;;2.37;;
4385;SDS011;2207;53.540;10.042;2023-05-09T02:37:39;5.10;;;2.90;;
4385;SDS011;2207;53.540;10.042;2023-05-09T02:40:07;2.40;;;2.20;;
4385;SDS011;2207;53.540;10.042;2023-05-09T02:42:35;3.43;;;3.23;;
4385;SDS011;2207;53.540;10.042;2023-05-09T02:45:01;3.60;;;2.67;;
4385;SDS011;2207;53.540;10.042;2023-05-09T02:47:28;2.40;;;2.20;;
4385;SDS011;2207;53.540;10.042;2023-05-09T02:49:55;2.83;;;2.50;;
4385;SDS011;2207;53.540;10.042;2023-05-09T02:52:23;2.40;;;2.20;;
4385;SDS011;2207;53.540;10.042;2023-05-09T02:54:51;2.50;;;2.30;;
4385;SDS011;2207;53.540;10.042;2023-05-09T02:57:18;3.10;;;2.90;;
4385;SDS011;2207;53.540;10.042;2023-05-09T02:59:45;3.40;;;2.40;;
4385;SDS011;2207;53.540;10.042;2023-05-09T03:02:11;4.70;;;2.83;;
4385;SDS011;2207;53.540;10.042;2023-05-09T03:04:38;3.33;;;2.70;;
4385;SDS011;2207;53.540;10.042;2023-05-09T03:07:05;2.17;;;1.97;;
4385;SDS011;2207;53.540;10.042;2023-05-09T03:09:32;4.03;;;2.90;;
4385;SDS011;2207;53.540;10.042;2023-05-09T03:12:00;7.93;;;2.10;;
4385;SDS011;2207;53.540;10.042;2023-05-09T03:14:27;3.00;;;2.80;;
4385;SDS011;2207;53.540;10.042;2023-05-09T03:16:55;2.60;;;2.40;;
4385;SDS011;2207;53.540;10.042;2023-05-09T03:19:22;3.80;;;3.03;;
4385;SDS011;2207;53.540;10.042;2023-05-09T03:21:49;5.97;;;2.50;;
4385;SDS011;2207;53.540;10.042;2023-05-09T03:24:16;2.50;;;2.30;;
4385;SDS011;2207;53.540;10.042;2023-05-09T03:26:42;5.10;;;2.63;;
4385;SDS011;2207;53.540;10.042;2023-05-09T03:29:10;3.47;;;3.17;;
4385;SDS011;2207;53.540;10.042;2023-05-09T03:31:37;2.47;;;2.27;;
4385;SDS011;2207;53.540;10.042;2023-05-09T03:34:04;6.73;;;3.10;;
4385;SDS011;2207;53.540;10.042;2023-05-09T03:36:30;3.40;;;3.07;;
4385;SDS011;2207;53.540;10.042;2023-05-09T03:38:57;4.27;;;3.17;;
4385;SDS011;2207;53.540;10.042;2023-05-09T03:41:24;2.27;;;2.07;;
4385;SDS011;2207;53.540;10.042;2023-05-09T03:43:50;3.63;;;2.47;;
4385;SDS011;2207;53.540;10.042;2023-05-09T03:46:18;3.43;;;3.00;;
4385;SDS011;2207;53.540;10.042;2023-05-09T03:48:45;3.23;;;2.97;;
4385;SDS011;2207;53.540;10.042;2023-05-09T03:51:12;4.43;;;2.67;;
4385;SDS011;2207;53.540;10.042;2023-05-09T03:53:38;2.60;;;2.40;;
4385;SDS011;2207;53.540;10.042;2023-05-09T03:56:05;5.20;;;3.03;;
4385;SDS011;2207;53.540;10.042;2023-05-09T03:58:32;5.30;;;2.97;;
4385;SDS011;2207;53.540;10.042;2023-05-09T04:00:59;2.67;;;2.47;;
4385;SDS011;2207;53.540;10.042;2023-05-09T04:03:27;4.50;;;3.00;;
4385;SDS011;2207;53.540;10.042;2023-05-09T04:05:54;3.17;;;2.90;;
4385;SDS011;2207;53.540;10.042;2023-05-09T04:08:21;3.30;;;3.00;;
4385;SDS011;2207;53.540;10.042;2023-05-09T04:10:47;3.27;;;2.70;;
4385;SDS011;2207;53.540;10.042;2023-05-09T04:13:15;3.33;;;2.17;;
4385;SDS011;2207;53.540;10.042;2023-05-09T04:15:41;2.00;;;1.37;;
4385;SDS011;2207;53.540;10.042;2023-05-09T04:18:08;3.27;;;2.97;;
4385;SDS011;2207;53.540;10.042;2023-05-09T04:20:36;5.80;;;2.80;;
4385;SDS011;2207;53.540;10.042;2023-05-09T04:23:03;4.10;;;2.90;;
4385;SDS011;2207;53.540;10.042;2023-05-09T04:25:30;3.43;;;3.13;;
4385;SDS011;2207;53.540;10.042;2023-05-09T04:27:56;4.20;;;2.87;;
4385;SDS011;2207;53.540;10.042;2023-05-09T04:30:23;2.20;;;1.90;;
4385;SDS011;2207;53.540;10.042;2023-05-09T04:32:51;3.03;;;2.70;;
4385;SDS011;2207;53.540;10.042;2023-05-09T04:35:19;6.63;;;3.43;;
4385;SDS011;2207;53.540;10.042;2023-05-09T04:37:47;4.10;;;3.03;;
4385;SDS011;2207;53.540;10.042;2023-05-09T04:40:14;3.73;;;3.40;;
4385;SDS011;2207;53.540;10.042;2023-05-09T04:42:40;3.47;;;3.17;;
4385;SDS011;2207;53.540;10.042;2023-05-09T04:45:07;3.60;;;3.30;;
4385;SDS011;2207;53.540;10.042;2023-05-09T04:47:35;5.80;;;3.80;;
4385;SDS011;2207;53.540;10.042;2023-05-09T04:50:02;6.60;;;3.07;;
4385;SDS011;2207;53.540;10.042;2023-05-09T04:52:29;2.93;;;2.57;;
4385;SDS011;2207;53.540;10.042;2023-05-09T04:54:57;4.63;;;3.50;;
4385;SDS011;2207;53.540;10.042;2023-05-09T04:57:24;3.37;;;3.03;;
4385;SDS011;2207;53.540;10.042;2023-05-09T04:59:50;3.97;;;3.43;;
4385;SDS011;2207;53.540;10.042;2023-05-09T05:02:17;4.93;;;2.90;;
4385;SDS011;2207;53.540;10.042;2023-05-09T05:04:45;9.80;;;3.40;;
4385;SDS011;2207;53.540;10.042;2023-05-09T05:07:11;4.67;;;3.33;;
4385;SDS011;2207;53.540;10.042;2023-05-09T05:09:38;3.97;;;3.17;;
4385;SDS011;2207;53.540;10.042;2023-05-09T05:12:06;14.93;;;3.47;;
4385;SDS011;2207;53.540;10.042;2023-05-09T05:14:33;4.70;;;3.03;;
4385;SDS011;2207;53.540;10.042;2023-05-09T05:17:00;4.40;;;3.50;;
4385;SDS011;2207;53.540;10.042;2023-05-09T05:19:27;3.17;;;2.83;;
4385;SDS011;2207;53.540;10.042;2023-05-09T05:21:54;5.30;;;3.07;;
4385;SDS011;2207;53.540;10.042;2023-05-09T05:24:20;3.63;;;3.30;;
4385;SDS011;2207;53.540;10.042;2023-05-09T05:26:47;4.30;;;2.50;;
4385;SDS011;2207;53.540;10.042;2023-05-09T05:29:15;4.90;;;3.53;;
4385;SDS011;2207;53.540;10.042;2023-05-09T05:31:42;3.53;;;3.10;;
4385;SDS011;2207;53.540;10.042;2023-05-09T05:34:09;4.93;;;3.10;;
4385;SDS011;2207;53.540;10.042;2023-05-09T05:36:36;4.10;;;3.63;;
4385;SDS011;2207;53.540;10.042;2023-05-09T05:39:03;8.03;;;3.17;;
4385;SDS011;2207;53.540;10.042;2023-05-09T05:41:30;4.27;;;3.87;;
4385;SDS011;2207;53.540;10.042;2023-05-09T05:43:56;10.20;;;4.10;;
4385;SDS011;2207;53.540;10.042;2023-05-09T05:46:25;5.63;;;3.70;;
4385;SDS011;2207;53.540;10.042;2023-05-09T05:48:51;4.80;;;3.63;;
4385;SDS011;2207;53.540;10.042;2023-05-09T05:51:18;4.40;;;3.40;;
4385;SDS011;2207;53.540;10.042;2023-05-09T05:53:45;5.90;;;4.47;;
4385;SDS011;2207;53.540;10.042;2023-05-09T05:56:12;4.13;;;3.83;;
4385;SDS011;2207;53.540;10.042;2023-05-09T05:58:39;4.90;;;3.40;;
4385;SDS011;2207;53.540;10.042;2023-05-09T06:01:06;6.20;;;3.50;;
4385;SDS011;2207;53.540;10.042;2023-05-09T06:03:34;9.50;;;3.90;;
4385;SDS011;2207;53.540;10.042;2023-05-09T06:06:00;5.37;;;4.77;;
4385;SDS011;2207;53.540;10.042;2023-05-09T06:08:30;3.57;;;3.27;;
4385;SDS011;2207;53.540;10.042;2023-05-09T06:10:57;3.80;;;3.50;;
4385;SDS011;2207;53.540;10.042;2023-05-09T06:13:25;17.07;;;4.90;;
4385;SDS011;2207;53.540;10.042;2023-05-09T06:15:53;5.07;;;3.87;;
4385;SDS011;2207;53.540;10.042;2023-05-09T06:18:20;4.30;;;3.90;;
4385;SDS011;2207;53.540;10.042;2023-05-09T06:20:49;6.50;;;3.33;;
4385;SDS011;2207;53.540;10.042;2023-05-09T06:23:15;6.83;;;4.03;;
4385;SDS011;2207;53.540;10.042;2023-05-09T06:25:46;9.23;;;4.17;;
4385;SDS011;2207;53.540;10.042;2023-05-09T06:28:12;5.90;;;4.07;;
4385;SDS011;2207;53.540;10.042;2023-05-09T06:30:39;4.03;;;3.70;;
4385;SDS011;2207;53.540;10.042;2023-05-09T06:33:06;8.60;;;4.03;;
4385;SDS011;2207;53.540;10.042;2023-05-09T06:35:33;3.90;;;3.47;;
4385;SDS011;2207;53.540;10.042;2023-05-09T06:38:01;3.83;;;3.53;;
4385;SDS011;2207;53.540;10.042;2023-05-09T06:40:28;3.70;;;3.47;;
4385;SDS011;2207;53.540;10.042;2023-05-09T06:42:55;9.33;;;4.13;;
4385;SDS011;2207;53.540;10.042;2023-05-09T06:45:22;4.67;;;4.23;;
4385;SDS011;2207;53.540;10.042;2023-05-09T06:47:48;5.97;;;3.70;;
4385;SDS011;2207;53.540;10.042;2023-05-09T06:50:15;4.53;;;3.30;;
4385;SDS011;2207;53.540;10.042;2023-05-09T06:52:42;3.90;;;3.60;;
4385;SDS011;2207;53.540;10.042;2023-05-09T06:55:10;7.80;;;3.70;;
4385;SDS011;2207;53.540;10.042;2023-05-09T06:57:37;7.70;;;4.10;;
4385;SDS011;2207;53.540;10.042;2023-05-09T07:00:08;7.20;;;3.43;;
4385;SDS011;2207;53.540;10.042;2023-05-09T07:02:35;5.23;;;3.67;;
4385;SDS011;2207;53.540;10.042;2023-05-09T07:05:05;3.90;;;3.50;;
4385;SDS011;2207;53.540;10.042;2023-05-09T07:07:33;4.23;;;3.20;;
4385;SDS011;2207;53.540;10.042;2023-05-09T07:09:59;3.73;;;3.37;;
4385;SDS011;2207;53.540;10.042;2023-05-09T07:12:31;4.77;;;3.47;;
4385;SDS011;2207;53.540;10.042;2023-05-09T07:14:58;3.80;;;3.37;;
4385;SDS011;2207;53.540;10.042;2023-05-09T07:17:25;3.70;;;3.33;;
4385;SDS011;2207;53.540;10.042;2023-05-09T07:19:54;5.87;;;3.87;;
4385;SDS011;2207;53.540;10.042;2023-05-09T07:22:21;5.43;;;3.57;;
4385;SDS011;2207;53.540;10.042;2023-05-09T07:24:48;3.73;;;3.43;;
4385;SDS011;2207;53.540;10.042;2023-05-09T07:27:15;6.33;;;3.97;;
4385;SDS011;2207;53.540;10.042;2023-05-09T07:29:45;4.60;;;3.80;;
4385;SDS011;2207;53.540;10.042;2023-05-09T07:32:13;7.03;;;4.00;;
4385;SDS011;2207;53.540;10.042;2023-05-09T07:34:41;3.40;;;3.07;;
4385;SDS011;2207;53.540;10.042;2023-05-09T07:37:08;3.87;;;2.97;;
4385;SDS011;2207;53.540;10.042;2023-05-09T07:39:43;3.77;;;2.93;;
4385;SDS011;2207;53.540;10.042;2023-05-09T07:42:11;7.43;;;4.53;;
4385;SDS011;2207;53.540;10.042;2023-05-09T07:44:40;16.13;;;3.63;;
4385;SDS011;2207;53.540;10.042;2023-05-09T07:47:11;3.73;;;2.83;;
4385;SDS011;2207;53.540;10.042;2023-05-09T07:49:37;4.10;;;3.70;;
4385;SDS011;2207;53.540;10.042;2023-05-09T07:52:07;4.80;;;3.77;;
4385;SDS011;2207;53.540;10.042;2023-05-09T07:54:34;6.57;;;3.60;;
4385;SDS011;2207;53.540;10.042;2023-05-09T07:57:01;4.53;;;3.27;;
4385;SDS011;2207;53.540;10.042;2023-05-09T07:59:28;4.60;;;3.30;;
4385;SDS011;2207;53.540;10.042;2023-05-09T08:01:55;4.97;;;3.70;;
4385;SDS011;2207;53.540;10.042;2023-05-09T08:04:29;4.60;;;3.40;;
4385;SDS011;2207;53.540;10.042;2023-05-09T08:06:56;6.97;;;3.83;;
4385;SDS011;2207;53.540;10.042;2023-05-09T08:09:23;4.70;;;3.87;;
4385;SDS011;2207;53.540;10.042;2023-05-09T08:11:50;3.80;;;3.47;;
4385;SDS011;2207;53.540;10.042;2023-05-09T08:14:17;3.93;;;3.60;;
4385;SDS011;2207;53.540;10.042;2023-05-09T08:16:44;4.43;;;3.30;;
4385;SDS011;2207;53.540;10.042;2023-05-09T08:19:12;4.60;;;3.70;;
4385;SDS011;2207;53.540;10.042;2023-05-09T08:21:42;3.93;;;3.53;;
4385;SDS011;2207;53.540;10.042;2023-05-09T08:24:09;3.70;;;2.90;;
4385;SDS011;2207;53.540;10.042;2023-05-09T08:26:36;6.80;;;3.33;;
4385;SDS011;2207;53.540;10.042;2023-05-09T08:29:03;3.30;;;2.70;;
4385;SDS011;2207;53.540;10.042;2023-05-09T08:31:30;4.20;;;2.60;;
4385;SDS011;2207;53.540;10.042;2023-05-09T08:33:57;5.50;;;3.33;;
4385;SDS011;2207;53.540;10.042;2023-05-09T08:36:28;6.63;;;3.43;;
4385;SDS011;2207;53.540;10.042;2023-05-09T08:39:05;3.70;;;3.33;;
4385;SDS011;2207;53.540;10.042;2023-05-09T08:41:35;3.90;;;3.20;;
4385;SDS011;2207;53.540;10.042;2023-05-09T08:44:13;3.80;;;3.10;;
4385;SDS011;2207;53.540;10.042;2023-05-09T08:46:41;3.20;;;2.33;;
4385;SDS011;2207;53.540;10.042;2023-05-09T08:49:13;4.03;;;3.63;;
4385;SDS011;2207;53.540;10.042;2023-05-09T08:51:41;3.67;;;3.37;;
4385;SDS011;2207;53.540;10.042;2023-05-09T08:54:10;3.33;;;3.10;;
4385;SDS011;2207;53.540;10.042;2023-05-09T08:56:39;4.83;;;3.23;;
4385;SDS011;2207;53.540;10.042;2023-05-09T08:59:06;7.93;;;3.00;;
4385;SDS011;2207;53.540;10.042;2023-05-09T09:01:34;4.57;;;3.20;;
4385;SDS011;2207;53.540;10.042;2023-05-09T09:04:01;3.10;;;2.80;;
4385;SDS011;2207;53.540;10.042;2023-05-09T09:06:30;11.27;;;3.30;;
4385;SDS011;2207;53.540;10.042;2023-05-09T09:08:58;4.47;;;2.73;;
4385;SDS011;2207;53.540;10.042;2023-05-09T09:11:27;5.67;;;4.00;;
4385;SDS011;2207;53.540;10.042;2023-05-09T09:13:55;4.30;;;3.43;;
4385;SDS011;2207;53.540;10.042;2023-05-09T09:16:28;3.07;;;2.83;;
4385;SDS011;2207;53.540;10.042;2023-05-09T09:18:56;7.30;;;3.00;;
4385;SDS011;2207;53.540;10.042;2023-05-09T09:21:24;8.87;;;3.20;;
4385;SDS011;2207;53.540;10.042;2023-05-09T09:23:51;5.00;;;2.90;;
4385;SDS011;2207;53.540;10.042;2023-05-09T09:26:20;9.10;;;3.50;;
4385;SDS011;2207;53.540;10.042;2023-05-09T09:28:48;4.90;;;2.57;;
4385;SDS011;2207;53.540;10.042;2023-05-09T09:31:19;4.43;;;2.80;;
4385;SDS011;2207;53.540;10.042;2023-05-09T09:33:46;4.20;;;2.70;;
4385;SDS011;2207;53.540;10.042;2023-05-09T09:36:13;4.20;;;3.10;;
4385;SDS011;2207;53.540;10.042;2023-05-09T09:38:41;5.40;;;2.80;;
4385;SDS011;2207;53.540;10.042;2023-05-09T09:41:08;3.17;;;2.77;;
4385;SDS011;2207;53.540;10.042;2023-05-09T09:43:37;9.13;;;2.90;;
4385;SDS011;2207;53.540;10.042;2023-05-09T09:46:05;3.97;;;2.53;;
4385;SDS011;2207;53.540;10.042;2023-05-09T09:48:34;3.30;;;2.73;;
4385;SDS011;2207;53.540;10.042;2023-05-09T09:51:02;3.27;;;2.33;;
4385;SDS011;2207;53.540;10.042;2023-05-09T09:53:38;3.03;;;2.60;;
4385;SDS011;2207;53.540;10.042;2023-05-09T09:56:05;5.97;;;2.53;;
4385;SDS011;2207;53.540;10.042;2023-05-09T09:58:33;3.10;;;2.90;;
4385;SDS011;2207;53.540;10.042;2023-05-09T10:01:03;3.47;;;2.53;;
4385;SDS011;2207;53.540;10.042;2023-05-09T10:03:36;4.63;;;2.73;;
4385;SDS011;2207;53.540;10.042;2023-05-09T10:06:03;3.97;;;3.43;;
4385;SDS011;2207;53.540;10.042;2023-05-09T10:08:30;3.30;;;2.50;;
4385;SDS011;2207;53.540;10.042;2023-05-09T10:10:57;4.73;;;2.97;;
4385;SDS011;2207;53.540;10.042;2023-05-09T10:13:25;3.37;;;2.60;;
4385;SDS011;2207;53.540;10.042;2023-05-09T10:15:55;3.47;;;2.20;;
4385;SDS011;2207;53.540;10.042;2023-05-09T10:18:26;6.47;;;2.93;;
4385;SDS011;2207;53.540;10.042;2023-05-09T10:20:55;1.97;;;1.77;;
4385;SDS011;2207;53.540;10.042;2023-05-09T10:23:25;6.37;;;3.43;;
4385;SDS011;2207;53.540;10.042;2023-05-09T10:25:56;2.50;;;2.30;;
4385;SDS011;2207;53.540;10.042;2023-05-09T10:28:30;3.30;;;2.30;;
4385;SDS011;2207;53.540;10.042;2023-05-09T10:30:59;2.50;;;2.30;;
4385;SDS011;2207;53.540;10.042;2023-05-09T10:33:38;2.43;;;2.20;;
4385;SDS011;2207;53.540;10.042;2023-05-09T10:36:08;2.60;;;2.20;;
4385;SDS011;2207;53.540;10.042;2023-05-09T10:38:36;2.30;;;1.90;;
4385;SDS011;2207;53.540;10.042;2023-05-09T10:41:11;3.50;;;2.50;;
4385;SDS011;2207;53.540;10.042;2023-05-09T10:43:38;3.17;;;2.87;;
4385;SDS011;2207;53.540;10.042;2023-05-09T10:46:06;2.63;;;2.00;;
4385;SDS011;2207;53.540;10.042;2023-05-09T10:48:35;4.17;;;2.37;;
4385;SDS011;2207;53.540;10.042;2023-05-09T10:51:07;2.67;;;2.40;;
4385;SDS011;2207;53.540;10.042;2023-05-09T10:53:41;3.80;;;2.47;;
4385;SDS011;2207;53.540;10.042;2023-05-09T10:56:22;9.93;;;2.10;;
4385;SDS011;2207;53.540;10.042;2023-05-09T10:58:50;3.80;;;2.47;;
4385;SDS011;2207;53.540;10.042;2023-05-09T11:01:33;2.60;;;2.40;;
4385;SDS011;2207;53.540;10.042;2023-05-09T11:04:07;3.43;;;2.07;;
4385;SDS011;2207;53.540;10.042;2023-05-09T11:06:39;3.43;;;2.27;;
4385;SDS011;2207;53.540;10.042;2023-05-09T11:09:21;7.93;;;2.57;;
4385;SDS011;2207;53.540;10.042;2023-05-09T11:11:51;4.20;;;3.03;;
4385;SDS011;2207;53.540;10.042;2023-05-09T11:14:28;4.53;;;2.90;;
4385;SDS011;2207;53.540;10.042;2023-05-09T11:16:58;4.53;;;2.63;;
4385;SDS011;2207;53.540;10.042;2023-05-09T11:19:33;7.13;;;2.90;;
4385;SDS011;2207;53.540;10.042;2023-05-09T11:22:03;4.20;;;2.40;;
4385;SDS011;2207;53.540;10.042;2023-05-09T11:24:43;4.60;;;2.73;;
4385;SDS011;2207;53.540;10.042;2023-05-09T11:27:14;3.30;;;2.00;;
4385;SDS011;2207;53.540;10.042;2023-05-09T11:29:42;2.87;;;1.83;;
4385;SDS011;2207;53.540;10.042;2023-05-09T11:32:09;3.53;;;2.20;;
4385;SDS011;2207;53.540;10.042;2023-05-09T11:34:41;2.67;;;2.47;;
4385;SDS011;2207;53.540;10.042;2023-05-09T11:37:09;21.77;;;2.90;;
4385;SDS011;2207;53.540;10.042;2023-05-09T11:39:56;2.77;;;2.17;;
4385;SDS011;2207;53.540;10.042;2023-05-09T11:42:24;5.30;;;2.10;;
4385;SDS011;2207;53.540;10.042;2023-05-09T11:44:52;4.23;;;2.60;;
4385;SDS011;2207;53.540;10.042;2023-05-09T11:47:21;11.23;;;2.77;;
4385;SDS011;2207;53.540;10.042;2023-05-09T11:49:49;2.63;;;2.43;;
4385;SDS011;2207;53.540;10.042;2023-05-09T11:52:17;1.33;;;1.23;;
4385;SDS011;2207;53.540;10.042;2023-05-09T11:54:44;2.23;;;2.00;;
4385;SDS011;2207;53.540;10.042;2023-05-09T11:57:13;6.27;;;2.17;;
4385;SDS011;2207;53.540;10.042;2023-05-09T11:59:42;1.67;;;1.40;;
4385;SDS011;2207;53.540;10.042;2023-05-09T12:02:10;2.00;;;1.80;;
4385;SDS011;2207;53.540;10.042;2023-05-09T12:04:38;2.97;;;2.63;;
4385;SDS011;2207;53.540;10.042;2023-05-09T12:07:06;2.53;;;2.33;;
4385;SDS011;2207;53.540;10.042;2023-05-09T12:09:36;2.07;;;1.93;;
4385;SDS011;2207;53.540;10.042;2023-05-09T12:12:10;4.70;;;2.70;;
4385;SDS011;2207;53.540;10.042;2023-05-09T12:14:38;11.50;;;3.23;;
4385;SDS011;2207;53.540;10.042;2023-05-09T12:17:05;8.13;;;5.57;;
4385;SDS011;2207;53.540;10.042;2023-05-09T12:19:32;25.10;;;10.73;;
4385;SDS011;2207;53.540;10.042;2023-05-09T12:22:00;22.43;;;14.80;;
4385;SDS011;2207;53.540;10.042;2023-05-09T12:24:30;16.23;;;11.73;;
4385;SDS011;2207;53.540;10.042;2023-05-09T12:27:01;24.00;;;12.47;;
4385;SDS011;2207;53.540;10.042;2023-05-09T12:29:28;24.40;;;15.00;;
4385;SDS011;2207;53.540;10.042;2023-05-09T12:31:57;18.27;;;12.37;;
4385;SDS011;2207;53.540;10.042;2023-05-09T12:34:25;10.20;;;7.13;;
4385;SDS011;2207;53.540;10.042;2023-05-09T12:36:52;3.50;;;3.20;;
4385;SDS011;2207;53.540;10.042;2023-05-09T12:39:18;3.53;;;3.20;;
4385;SDS011;2207;53.540;10.042;2023-05-09T12:41:50;5.23;;;4.70;;
4385;SDS011;2207;53.540;10.042;2023-05-09T12:44:18;5.13;;;3.53;;
4385;SDS011;2207;53.540;10.042;2023-05-09T12:46:56;12.70;;;3.73;;
4385;SDS011;2207;53.540;10.042;2023-05-09T12:49:23;10.20;;;4.37;;
4385;SDS011;2207;53.540;10.042;2023-05-09T12:51:51;8.03;;;3.10;;
4385;SDS011;2207;53.540;10.042;2023-05-09T12:54:19;8.33;;;3.67;;
4385;SDS011;2207;53.540;10.042;2023-05-09T12:56:48;4.77;;;3.03;;
4385;SDS011;2207;53.540;10.042;2023-05-09T12:59:20;5.60;;;2.70;;
4385;SDS011;2207;53.540;10.042;2023-05-09T13:01:51;6.97;;;3.60;;
4385;SDS011;2207;53.540;10.042;2023-05-09T13:04:19;2.80;;;2.40;;
4385;SDS011;2207;53.540;10.042;2023-05-09T13:06:47;5.73;;;2.90;;
4385;SDS011;2207;53.540;10.042;2023-05-09T13:09:15;5.00;;;3.03;;
4385;SDS011;2207;53.540;10.042;2023-05-09T13:11:43;4.13;;;3.23;;
4385;SDS011;2207;53.540;10.042;2023-05-09T13:14:12;6.63;;;2.60;;
4385;SDS011;2207;53.540;10.042;2023-05-09T13:16:39;4.17;;;1.67;;
4385;SDS011;2207;53.540;10.042;2023-05-09T13:19:06;2.67;;;1.40;;
4385;SDS011;2207;53.540;10.042;2023-05-09T13:21:33;6.10;;;3.20;;
4385;SDS011;2207;53.540;10.042;2023-05-09T13:24:00;4.60;;;2.23;;
4385;SDS011;2207;53.540;10.042;2023-05-09T13:26:27;4.23;;;2.50;;
4385;SDS011;2207;53.540;10.042;2023-05-09T13:28:56;2.70;;;2.37;;
4385;SDS011;2207;53.540;10.042;2023-05-09T13:31:24;2.80;;;2.43;;
4385;SDS011;2207;53.540;10.042;2023-05-09T13:33:51;6.73;;;2.40;;
4385;SDS011;2207;53.540;10.042;2023-05-09T13:36:18;3.90;;;2.23;;
4385;SDS011;2207;53.540;10.042;2023-05-09T13:38:45;2.47;;;1.80;;
4385;SDS011;2207;53.540;10.042;2023-05-09T13:41:12;2.60;;;2.33;;
4385;SDS011;2207;53.540;10.042;2023-05-09T13:43:43;3.70;;;2.03;;
4385;SDS011;2207;53.540;10.042;2023-05-09T13:46:10;3.63;;;2.80;;
4385;SDS011;2207;53.540;10.042;2023-05-09T13:48:38;4.10;;;2.20;;
4385;SDS011;2207;53.540;10.042;2023-05-09T13:51:05;2.60;;;1.80;;
4385;SDS011;2207;53.540;10.042;2023-05-09T13:53:33;2.30;;;2.07;;
4385;SDS011;2207;53.540;10.042;2023-05-09T13:56:00;2.67;;;2.10;;
4385;SDS011;2207;53.540;10.042;2023-05-09T13:58:27;3.10;;;2.17;;
4385;SDS011;2207;53.540;10.042;2023-05-09T14:00:54;4.23;;;2.50;;
4385;SDS011;2207;53.540;10.042;2023-05-09T14:03:20;3.40;;;2.27;;
4385;SDS011;2207;53.540;10.042;2023-05-09T14:05:49;2.57;;;2.37;;
4385;SDS011;2207;53.540;10.042;2023-05-09T14:08:16;3.30;;;1.47;;
4385;SDS011;2207;53.540;10.042;2023-05-09T14:10:42;2.27;;;2.00;;
4385;SDS011;2207;53.540;10.042;2023-05-09T14:13:09;3.90;;;1.93;;
4385;SDS011;2207;53.540;10.042;2023-05-09T14:15:36;5.00;;;2.40;;
4385;SDS011;2207;53.540;10.042;2023-05-09T14:18:03;2.00;;;1.83;;
4385;SDS011;2207;53.540;10.042;2023-05-09T14:20:30;3.03;;;2.20;;
4385;SDS011;2207;53.540;10.042;2023-05-09T14:22:58;3.73;;;2.13;;
4385;SDS011;2207;53.540;10.042;2023-05-09T14:25:25;1.80;;;1.67;;
4385;SDS011;2207;53.540;10.042;2023-05-09T14:27:52;2.37;;;2.17;;
4385;SDS011;2207;53.540;10.042;2023-05-09T14:30:19;3.07;;;2.37;;
4385;SDS011;2207;53.540;10.042;2023-05-09T14:32:45;5.13;;;2.00;;
4385;SDS011;2207;53.540;10.042;2023-05-09T14:35:14;1.30;;;1.23;;
4385;SDS011;2207;53.540;10.042;2023-05-09T14:37:40;2.83;;;2.40;;
4385;SDS011;2207;53.540;10.042;2023-05-09T14:40:09;4.80;;;2.17;;
4385;SDS011;2207;53.540;10.042;2023-05-09T14:42:36;3.40;;;2.47;;
4385;SDS011;2207;53.540;10.042;2023-05-09T14:45:03;4.80;;;2.30;;
4385;SDS011;2207;53.540;10.042;2023-05-09T14:47:31;3.33;;;1.80;;
4385;SDS011;2207;53.540;10.042;2023-05-09T14:49:58;3.00;;;2.20;;
4385;SDS011;2207;53.540;10.042;2023-05-09T14:52:25;3.20;;;1.87;;
4385;SDS011;2207;53.540;10.042;2023-05-09T14:54:52;2.40;;;2.20;;
4385;SDS011;2207;53.540;10.042;2023-05-09T14:57:20;2.80;;;1.70;;
4385;SDS011;2207;53.540;10.042;2023-05-09T14:59:47;5.70;;;2.00;;
4385;SDS011;2207;53.540;10.042;2023-05-09T15:02:14;1.27;;;1.20;;
4385;SDS011;2207;53.540;10.042;2023-05-09T15:04:40;3.27;;;2.00;;
4385;SDS011;2207;53.540;10.042;2023-05-09T15:07:07;3.83;;;1.80;;
4385;SDS011;2207;53.540;10.042;2023-05-09T15:09:34;6.10;;;1.70;;